Time;durP1;ratioP1;P1;durP2;ratioP2;P2;SDS_P1;SDS_P2;PMS_P1;PMS_P2;Temp;Humidity;BMP_temperature;BMP_pressure;BME280_temperature;BME280_humidity;BME280_pressure;Samples;Min_cycle;Max_cycle;Signal;HPM_P1;HPM_P2
2022/03/04 00:01:57;;;;;;;29.35;15.25;;;0.50;99.90;;;;;;5018225;28;20045;-67
2022/03/04 00:04:23;;;;;;;33.15;15.00;;;0.40;99.90;;;;;;5055220;28;20045;-67
2022/03/04 00:06:49;;;;;;;28.15;14.20;;;0.40;99.90;;;;;;5056260;28;20508;-67
2022/03/04 00:09:15;;;;;;;31.73;14.85;;;0.40;99.90;;;;;;5054682;28;20045;-67
2022/03/04 00:11:41;;;;;;;29.27;14.23;;;0.40;99.90;;;;;;5040442;28;20045;-66
2022/03/04 00:14:08;;;;;;;29.80;14.85;;;0.30;99.90;;;;;;5030799;28;20175;-67
2022/03/04 00:16:34;;;;;;;31.02;14.98;;;0.30;99.90;;;;;;5051227;28;20457;-67
2022/03/04 00:19:06;;;;;;;36.58;15.32;;;0.30;99.90;;;;;;5052586;28;20055;-67
2022/03/04 00:21:35;;;;;;;27.90;13.57;;;0.20;99.90;;;;;;5050504;28;20075;-67
2022/03/04 00:24:01;;;;;;;32.17;14.60;;;0.20;99.90;;;;;;5049632;28;20044;-67
2022/03/04 00:26:27;;;;;;;31.15;15.05;;;0.20;99.90;;;;;;5051792;28;20041;-67
2022/03/04 00:28:52;;;;;;;30.38;14.25;;;0.20;99.90;;;;;;5050414;28;20438;-67
2022/03/04 00:31:18;;;;;;;31.08;14.68;;;0.20;99.90;;;;;;5051816;28;20091;-67
2022/03/04 00:33:43;;;;;;;27.00;14.07;;;0.20;99.90;;;;;;5051164;28;20090;-68
2022/03/04 00:36:09;;;;;;;29.77;14.95;;;0.20;99.90;;;;;;5051556;28;20111;-67
2022/03/04 00:38:35;;;;;;;30.70;14.70;;;0.20;99.90;;;;;;5051766;28;20055;-66
2022/03/04 00:41:00;;;;;;;34.75;15.70;;;0.10;99.90;;;;;;5050074;28;20080;-66
2022/03/04 00:43:26;;;;;;;32.25;15.10;;;0.10;99.90;;;;;;5051940;28;20090;-67
2022/03/04 00:45:52;;;;;;;34.30;14.75;;;0.10;99.90;;;;;;5051480;28;20083;-66
2022/03/04 00:48:17;;;;;;;32.00;14.95;;;0.10;99.90;;;;;;5064945;28;20106;-67
2022/03/04 00:50:43;;;;;;;35.95;16.05;;;0.10;99.90;;;;;;5052433;28;20052;-67
2022/03/04 00:53:09;;;;;;;31.02;15.07;;;0.10;99.90;;;;;;5047562;28;20135;-66
2022/03/04 00:55:38;;;;;;;30.80;14.98;;;0.10;99.90;;;;;;5042072;28;20147;-66
2022/03/04 00:58:07;;;;;;;34.50;15.75;;;0.10;99.90;;;;;;5044614;28;20036;-66
2022/03/04 01:00:34;;;;;;;32.17;15.10;;;0.10;99.90;;;;;;5049894;28;20039;-66
2022/03/04 01:03:02;;;;;;;33.70;14.75;;;0.10;99.90;;;;;;5049582;28;20483;-66
2022/03/04 01:05:28;;;;;;;31.87;15.17;;;0.10;99.90;;;;;;5053616;28;20044;-66
2022/03/04 01:07:54;;;;;;;30.58;15.88;;;0.10;99.90;;;;;;5052059;28;20741;-67
2022/03/04 01:10:20;;;;;;;29.60;15.68;;;0.20;99.90;;;;;;5056418;28;20041;-67
2022/03/04 01:12:46;;;;;;;35.50;15.68;;;0.20;99.90;;;;;;5050843;28;20041;-66
2022/03/04 01:15:12;;;;;;;27.98;14.68;;;0.20;99.90;;;;;;5051967;28;20040;-66
2022/03/04 01:17:37;;;;;;;32.35;15.70;;;0.20;99.90;;;;;;5056526;28;20120;-66
2022/03/04 01:20:05;;;;;;;34.42;16.10;;;0.20;99.90;;;;;;5044883;28;20179;-66
2022/03/04 01:22:31;;;;;;;30.98;15.55;;;0.10;99.90;;;;;;5045430;28;20041;-66
2022/03/04 01:24:57;;;;;;;34.97;16.88;;;0.10;99.90;;;;;;5037702;28;20044;-66
2022/03/04 01:27:24;;;;;;;35.63;17.10;;;0.10;99.90;;;;;;5053798;28;20110;-66
2022/03/04 01:29:50;;;;;;;39.13;17.15;;;0.10;99.90;;;;;;5044021;28;20629;-66
2022/03/04 01:32:16;;;;;;;41.22;17.92;;;0.00;99.90;;;;;;5048852;28;20037;-66
2022/03/04 01:34:42;;;;;;;36.92;17.05;;;0.10;99.90;;;;;;5051659;28;20402;-66
2022/03/04 01:37:09;;;;;;;35.85;16.35;;;0.10;99.90;;;;;;5057340;28;20354;-65
2022/03/04 01:39:35;;;;;;;38.28;18.45;;;0.10;99.90;;;;;;5049888;28;20049;-67
2022/03/04 01:42:01;;;;;;;37.85;16.13;;;0.10;99.90;;;;;;5039568;28;20080;-67
2022/03/04 01:44:28;;;;;;;38.00;16.42;;;0.10;99.90;;;;;;5037770;28;20084;-65
2022/03/04 01:46:53;;;;;;;35.50;16.77;;;0.10;99.90;;;;;;5048185;28;20086;-66
2022/03/04 01:49:19;;;;;;;36.50;16.23;;;0.10;99.90;;;;;;5048211;28;20433;-66
2022/03/04 01:51:45;;;;;;;37.75;17.20;;;0.10;99.90;;;;;;5048939;28;20076;-66
2022/03/04 01:54:10;;;;;;;41.70;18.20;;;0.00;99.90;;;;;;5008233;28;20055;-66
2022/03/04 01:56:36;;;;;;;37.85;16.52;;;0.00;99.90;;;;;;5048919;28;20033;-66
2022/03/04 01:59:02;;;;;;;34.97;16.27;;;0.00;99.90;;;;;;5051399;28;20136;-66
2022/03/04 02:01:27;;;;;;;39.70;17.38;;;-0.10;99.90;;;;;;5049206;28;20044;-66
2022/03/04 02:03:53;;;;;;;36.35;16.27;;;-0.10;99.90;;;;;;5048566;28;20415;-66
2022/03/04 02:06:19;;;;;;;36.70;17.27;;;-0.10;99.90;;;;;;5037171;28;20098;-66
2022/03/04 02:08:44;;;;;;;36.80;17.60;;;-0.10;99.90;;;;;;5035672;28;20044;-65
2022/03/04 02:11:10;;;;;;;45.65;17.35;;;-0.10;99.90;;;;;;5051213;28;20082;-66
2022/03/04 02:13:37;;;;;;;36.78;17.10;;;-0.20;99.90;;;;;;5050848;28;20049;-66
2022/03/04 02:16:12;;;;;;;34.65;16.50;;;-0.20;99.90;;;;;;5049305;28;20114;-66
2022/03/04 02:18:38;;;;;;;37.30;17.17;;;-0.20;99.90;;;;;;5050921;28;20525;-67
2022/03/04 02:21:07;;;;;;;42.28;19.35;;;-0.20;99.90;;;;;;5052007;28;20037;-67
2022/03/04 02:23:32;;;;;;;39.10;17.67;;;-0.20;99.90;;;;;;5052109;28;20052;-67
2022/03/04 02:25:59;;;;;;;39.53;17.02;;;-0.30;99.90;;;;;;5049503;28;20375;-66
2022/03/04 02:28:25;;;;;;;40.70;17.92;;;-0.30;99.90;;;;;;5055048;28;20062;-66
2022/03/04 02:30:50;;;;;;;40.53;19.63;;;-0.30;99.90;;;;;;5054192;28;20045;-67
2022/03/04 02:33:16;;;;;;;39.70;16.80;;;-0.30;99.90;;;;;;5054696;28;20037;-67
2022/03/04 02:35:42;;;;;;;41.83;19.30;;;-0.30;99.90;;;;;;5052784;28;20075;-67
2022/03/04 02:38:08;;;;;;;40.13;17.88;;;-0.30;99.90;;;;;;5059678;28;20053;-66
2022/03/04 02:40:34;;;;;;;45.25;18.70;;;-0.30;99.90;;;;;;5055285;28;20076;-67
2022/03/04 02:43:00;;;;;;;39.45;18.45;;;-0.30;99.90;;;;;;5054359;28;20064;-66
2022/03/04 02:45:25;;;;;;;39.83;17.38;;;-0.30;99.90;;;;;;5051822;28;20154;-67
2022/03/04 02:47:51;;;;;;;40.35;16.95;;;-0.40;99.90;;;;;;5055087;28;20040;-67
2022/03/04 02:50:17;;;;;;;40.20;17.52;;;-0.40;99.90;;;;;;5034873;28;20037;-67
2022/03/04 02:52:43;;;;;;;38.22;16.67;;;-0.40;99.90;;;;;;5053266;28;20045;-66
2022/03/04 02:55:11;;;;;;;42.13;17.52;;;-0.40;99.90;;;;;;5048287;28;20248;-66
2022/03/04 02:57:42;;;;;;;38.90;17.02;;;-0.50;99.90;;;;;;5039462;28;20548;-67
2022/03/04 03:00:09;;;;;;;35.58;18.15;;;-0.50;99.90;;;;;;5050304;28;20037;-67
2022/03/04 03:02:35;;;;;;;34.25;16.88;;;-0.50;99.90;;;;;;5053718;28;20044;-67
2022/03/04 03:05:00;;;;;;;40.40;18.10;;;-0.50;99.90;;;;;;5050912;28;20033;-66
2022/03/04 03:07:26;;;;;;;37.75;18.27;;;-0.50;99.90;;;;;;5052925;28;20049;-66
2022/03/04 03:09:52;;;;;;;37.53;18.17;;;-0.60;99.90;;;;;;5059168;28;20391;-66
2022/03/04 03:12:18;;;;;;;36.97;16.75;;;-1.60;99.90;;;;;;5048508;28;20045;-67
2022/03/04 03:14:43;;;;;;;39.22;18.60;;;-0.60;99.90;;;;;;5053711;28;20533;-67
2022/03/04 03:17:09;;;;;;;37.40;18.85;;;-0.60;99.90;;;;;;5052893;28;20043;-67
2022/03/04 03:19:34;;;;;;;38.60;17.75;;;-0.70;99.90;;;;;;5042600;28;20048;-67
2022/03/04 03:22:00;;;;;;;42.30;18.05;;;-0.70;99.90;;;;;;5037405;28;20538;-66
2022/03/04 03:24:25;;;;;;;43.35;17.58;;;-0.70;99.90;;;;;;5047595;28;20044;-67
2022/03/04 03:26:51;;;;;;;44.15;18.67;;;-0.70;99.90;;;;;;5051106;28;20097;-66
2022/03/04 03:29:17;;;;;;;41.70;17.90;;;-0.80;99.90;;;;;;5025341;28;20090;-67
2022/03/04 03:31:42;;;;;;;42.60;19.40;;;-0.80;99.90;;;;;;5029171;28;20414;-67
2022/03/04 03:34:08;;;;;;;44.75;17.17;;;-0.80;99.90;;;;;;5051162;28;20125;-66
2022/03/04 03:36:34;;;;;;;41.85;19.20;;;-0.80;99.90;;;;;;5033133;28;20048;-66
2022/03/04 03:38:59;;;;;;;44.88;19.83;;;-0.80;99.90;;;;;;5051252;28;20039;-66
2022/03/04 03:41:25;;;;;;;43.63;19.38;;;-0.90;99.90;;;;;;5054030;28;20073;-66
2022/03/04 03:43:52;;;;;;;43.25;18.77;;;-0.80;99.90;;;;;;5052266;28;20390;-66
2022/03/04 03:46:18;;;;;;;44.33;19.47;;;-0.80;99.90;;;;;;5047194;28;20056;-66
2022/03/04 03:48:44;;;;;;;40.72;18.88;;;-0.90;99.90;;;;;;5056122;28;20286;-66
2022/03/04 03:51:10;;;;;;;41.50;18.23;;;-0.90;99.90;;;;;;5046119;28;20059;-67
2022/03/04 03:53:36;;;;;;;40.78;18.75;;;-0.90;99.90;;;;;;5058304;28;20585;-66
2022/03/04 03:56:02;;;;;;;41.20;17.38;;;-0.90;99.90;;;;;;5039193;28;20056;-66
2022/03/04 03:58:28;;;;;;;41.35;17.10;;;-0.90;99.90;;;;;;5052545;28;20045;-67
2022/03/04 04:00:55;;;;;;;45.35;19.05;;;-1.00;99.90;;;;;;5052308;28;20048;-67
2022/03/04 04:03:20;;;;;;;43.28;19.05;;;-1.00;99.90;;;;;;5058990;28;20782;-67
2022/03/04 04:05:46;;;;;;;44.10;18.83;;;-1.00;99.90;;;;;;5051448;28;20048;-67
2022/03/04 04:08:12;;;;;;;44.15;17.10;;;-1.00;99.90;;;;;;5052425;28;20069;-66
2022/03/04 04:10:38;;;;;;;42.33;17.60;;;-1.10;99.90;;;;;;5041865;28;20065;-66
2022/03/04 04:13:04;;;;;;;40.65;18.67;;;-1.10;99.90;;;;;;5046763;28;20040;-67
2022/03/04 04:15:29;;;;;;;42.20;19.08;;;-1.10;99.90;;;;;;5031271;28;20457;-66
2022/03/04 04:17:55;;;;;;;46.10;19.13;;;-1.20;99.90;;;;;;5046072;28;20307;-66
2022/03/04 04:20:21;;;;;;;42.95;18.88;;;-1.20;99.90;;;;;;5050395;28;20068;-66
2022/03/04 04:22:46;;;;;;;47.63;18.85;;;-1.20;99.90;;;;;;5052023;28;20099;-66
2022/03/04 04:25:12;;;;;;;48.83;20.30;;;-1.20;99.90;;;;;;5051516;28;20040;-66
2022/03/04 04:27:37;;;;;;;47.13;19.52;;;-1.20;99.90;;;;;;5048529;28;20043;-66
2022/03/04 04:30:04;;;;;;;50.38;19.65;;;-1.20;99.90;;;;;;5036458;28;20037;-66
2022/03/04 04:32:29;;;;;;;50.35;19.98;;;-1.20;99.90;;;;;;5056329;28;20033;-67
2022/03/04 04:34:55;;;;;;;51.22;20.17;;;-1.20;99.90;;;;;;5036432;28;20040;-66
2022/03/04 04:37:21;;;;;;;45.55;18.50;;;-1.20;99.90;;;;;;5042167;28;20569;-67
2022/03/04 04:39:46;;;;;;;50.90;21.20;;;-1.20;99.90;;;;;;5046064;28;20049;-67
2022/03/04 04:42:12;;;;;;;50.47;21.42;;;-1.20;99.90;;;;;;5056967;28;20051;-67
2022/03/04 04:44:38;;;;;;;50.53;21.52;;;-1.10;99.90;;;;;;5052913;28;20041;-67
2022/03/04 04:47:06;;;;;;;49.10;20.45;;;-1.10;99.90;;;;;;5050417;28;20037;-67
2022/03/04 04:49:36;;;;;;;51.30;19.55;;;-1.10;99.90;;;;;;5045284;28;20514;-67
2022/03/04 04:52:03;;;;;;;47.90;20.17;;;-1.10;99.90;;;;;;5044465;28;20087;-67
2022/03/04 04:54:29;;;;;;;51.10;22.25;;;-1.10;99.90;;;;;;5049222;28;20049;-67
2022/03/04 04:56:55;;;;;;;50.53;19.08;;;-1.10;99.90;;;;;;5046848;28;20043;-67
2022/03/04 04:59:20;;;;;;;52.95;21.05;;;-1.10;99.90;;;;;;5051808;28;20052;-67
2022/03/04 05:01:46;;;;;;;50.55;20.65;;;-1.10;99.90;;;;;;5039944;28;20040;-67
2022/03/04 05:04:12;;;;;;;49.97;21.83;;;-1.10;99.90;;;;;;5052745;28;20433;-67
2022/03/04 05:06:38;;;;;;;51.88;20.45;;;-1.10;99.90;;;;;;5055963;28;20044;-67
2022/03/04 05:09:03;;;;;;;51.60;21.15;;;-1.10;99.90;;;;;;5055465;28;20091;-66
2022/03/04 05:11:29;;;;;;;51.15;20.98;;;-1.10;99.90;;;;;;5046859;28;20041;-66
2022/03/04 05:13:55;;;;;;;44.75;20.13;;;-1.10;99.90;;;;;;5045628;28;20044;-66
2022/03/04 05:16:21;;;;;;;50.50;19.73;;;-0.90;99.90;;;;;;5049272;28;20045;-66
2022/03/04 05:18:46;;;;;;;44.45;20.42;;;-1.10;99.90;;;;;;5027478;28;20120;-66
2022/03/04 05:21:12;;;;;;;45.80;20.40;;;-1.00;99.90;;;;;;5049051;28;20127;-66
2022/03/04 05:26:38;;;;;;;50.30;19.15;;;-1.00;99.90;;;;;;5000199;28;20129;-66
2022/03/04 05:29:09;;;;;;;51.03;21.05;;;-0.90;99.90;;;;;;5051342;28;20068;-66
2022/03/04 05:31:38;;;;;;;46.28;19.63;;;-0.90;99.90;;;;;;5053416;28;20385;-66
2022/03/04 05:34:06;;;;;;;48.78;20.38;;;-0.90;99.90;;;;;;5047702;28;20041;-66
2022/03/04 05:36:32;;;;;;;49.42;20.63;;;-1.00;99.90;;;;;;5050997;28;20084;-66
2022/03/04 05:38:58;;;;;;;46.15;19.10;;;-1.00;99.90;;;;;;5046581;28;20390;-66
2022/03/04 05:41:24;;;;;;;43.88;19.90;;;-0.90;99.90;;;;;;5051214;28;20052;-66
2022/03/04 05:43:50;;;;;;;43.25;19.13;;;-0.90;99.90;;;;;;5052751;28;20367;-66
2022/03/04 05:46:16;;;;;;;48.13;19.10;;;-0.90;99.90;;;;;;5047108;28;20076;-67
2022/03/04 05:48:42;;;;;;;50.95;19.67;;;-0.90;99.90;;;;;;5047591;28;20036;-64
2022/03/04 05:51:08;;;;;;;41.13;19.52;;;-1.00;99.90;;;;;;5032522;28;20048;-67
2022/03/04 05:53:34;;;;;;;43.88;18.33;;;-1.00;99.90;;;;;;5048938;28;20045;-66
2022/03/04 05:56:01;;;;;;;47.08;20.55;;;-0.90;99.90;;;;;;5056298;28;20398;-67
2022/03/04 05:58:27;;;;;;;45.88;18.88;;;-1.00;99.90;;;;;;5039915;28;20090;-66
2022/03/04 06:00:53;;;;;;;40.10;18.55;;;-1.00;99.90;;;;;;5048037;28;20102;-66
2022/03/04 06:03:19;;;;;;;46.10;19.20;;;-1.00;99.90;;;;;;5032992;28;20049;-66
2022/03/04 06:05:45;;;;;;;45.28;19.58;;;-1.00;99.90;;;;;;5052121;28;20458;-66
2022/03/04 06:08:10;;;;;;;40.58;18.17;;;-1.00;99.90;;;;;;5051952;28;20048;-66
2022/03/04 06:10:36;;;;;;;50.38;19.23;;;-1.00;99.90;;;;;;5054498;28;20405;-65
2022/03/04 06:13:02;;;;;;;41.88;18.85;;;-1.00;99.90;;;;;;5050567;28;20501;-66
2022/03/04 06:15:28;;;;;;;41.92;19.85;;;-1.00;99.90;;;;;;5048408;28;20041;-65
2022/03/04 06:17:54;;;;;;;47.67;20.25;;;-1.00;99.90;;;;;;5051081;28;20459;-65
2022/03/04 06:20:20;;;;;;;46.00;20.05;;;-0.90;99.90;;;;;;5041416;28;20045;-65
2022/03/04 06:22:46;;;;;;;49.70;22.08;;;-0.90;99.90;;;;;;5047271;28;20037;-65
2022/03/04 06:25:13;;;;;;;43.22;19.83;;;-0.90;99.90;;;;;;5054347;28;20048;-65
2022/03/04 06:27:55;;;;;;;42.00;18.77;;;-0.90;99.90;;;;;;5048925;28;20049;-66
2022/03/04 06:30:21;;;;;;;52.35;19.13;;;-0.90;99.90;;;;;;5048263;28;20503;-65
2022/03/04 06:32:47;;;;;;;43.80;20.25;;;-0.90;99.90;;;;;;5051338;28;20045;-66
2022/03/04 06:35:13;;;;;;;49.55;21.58;;;-0.90;99.90;;;;;;5053208;28;20049;-65
2022/03/04 06:37:39;;;;;;;47.42;19.80;;;-0.90;99.90;;;;;;5066123;28;20122;-65
2022/03/04 06:40:06;;;;;;;46.63;20.42;;;-0.90;99.90;;;;;;5055761;28;20076;-65
2022/03/04 06:42:32;;;;;;;49.53;21.52;;;-0.90;99.90;;;;;;5047681;28;21128;-65
2022/03/04 06:44:57;;;;;;;42.58;18.83;;;-0.90;99.90;;;;;;5050007;28;20033;-66
2022/03/04 06:47:23;;;;;;;44.15;18.58;;;-0.90;99.90;;;;;;5057927;28;20111;-66
2022/03/04 06:49:49;;;;;;;43.70;19.50;;;-0.90;99.90;;;;;;5051446;28;20073;-66
2022/03/04 06:52:14;;;;;;;42.05;21.15;;;-0.90;99.90;;;;;;5032869;28;20037;-66
2022/03/04 06:54:40;;;;;;;41.70;20.50;;;-0.90;99.90;;;;;;5050548;28;20044;-65
2022/03/04 06:57:06;;;;;;;43.25;19.73;;;-0.90;99.90;;;;;;5048749;28;20033;-66
2022/03/04 06:59:32;;;;;;;39.10;19.02;;;-0.80;99.90;;;;;;5052226;28;20417;-66
2022/03/04 07:01:59;;;;;;;37.28;18.27;;;-0.80;99.90;;;;;;5050882;28;20040;-66
2022/03/04 07:04:24;;;;;;;43.15;19.35;;;-0.80;99.90;;;;;;5043474;28;20513;-66
2022/03/04 07:06:50;;;;;;;46.42;20.25;;;-0.80;99.90;;;;;;5049403;28;20045;-66
2022/03/04 07:09:16;;;;;;;43.70;19.58;;;-0.80;99.90;;;;;;5042828;28;20037;-66
2022/03/04 07:11:42;;;;;;;43.72;20.55;;;-0.80;99.90;;;;;;5045752;28;20133;-66
2022/03/04 07:14:08;;;;;;;46.90;19.92;;;-0.80;99.90;;;;;;5050915;28;20587;-66
2022/03/04 07:16:33;;;;;;;51.08;20.70;;;-0.80;99.90;;;;;;5046129;28;20414;-67
2022/03/04 07:18:59;;;;;;;44.63;19.77;;;-0.80;99.90;;;;;;5048455;28;20386;-66
2022/03/04 07:21:25;;;;;;;49.35;21.15;;;-0.70;99.90;;;;;;5060769;28;20047;-67
2022/03/04 07:23:50;;;;;;;44.63;19.00;;;-0.70;99.90;;;;;;5049591;28;20044;-66
2022/03/04 07:26:17;;;;;;;44.08;19.45;;;-0.70;99.90;;;;;;5046323;28;20447;-66
2022/03/04 07:28:42;;;;;;;48.38;20.27;;;-0.60;99.90;;;;;;5056335;28;20041;-66
2022/03/04 07:31:08;;;;;;;42.70;20.63;;;-0.60;99.90;;;;;;5015907;28;20097;-66
2022/03/04 07:33:36;;;;;;;43.78;19.98;;;-0.60;99.90;;;;;;5051993;28;20037;-66
2022/03/04 07:36:02;;;;;;;;;;;-0.60;99.90;;;;;;5047456;28;21932;-67
2022/03/04 07:38:28;;;;;;;42.55;19.63;;;-0.60;99.90;;;;;;5039081;28;19943;-66
2022/03/04 07:40:58;;;;;;;41.58;19.10;;;-0.50;99.90;;;;;;5050806;28;20474;-65
2022/03/04 07:43:24;;;;;;;37.47;18.40;;;-0.50;99.90;;;;;;5030482;28;20049;-67
2022/03/04 07:45:50;;;;;;;44.90;20.13;;;-0.40;99.90;;;;;;5036463;28;20056;-66
2022/03/04 07:48:16;;;;;;;37.33;18.77;;;-0.40;99.90;;;;;;5046470;28;20045;-67
2022/03/04 07:50:50;;;;;;;46.63;20.73;;;-0.40;99.90;;;;;;5045424;28;20482;-66
2022/03/04 07:53:16;;;;;;;42.03;20.10;;;-0.40;99.90;;;;;;5056466;28;20268;-66
2022/03/04 07:55:42;;;;;;;36.50;17.83;;;-0.40;99.90;;;;;;5037393;28;20044;-66
2022/03/04 07:58:07;;;;;;;45.60;20.52;;;-0.40;99.90;;;;;;5039096;28;20101;-66
2022/03/04 08:00:33;;;;;;;43.58;19.85;;;-0.40;99.90;;;;;;5047167;28;20045;-67
2022/03/04 08:02:59;;;;;;;37.22;19.13;;;-0.30;99.90;;;;;;5034777;28;20040;-66
2022/03/04 08:05:25;;;;;;;39.15;19.73;;;-0.20;99.90;;;;;;5054147;28;20483;-66
2022/03/04 08:07:51;;;;;;;37.22;18.02;;;1.80;99.90;;;;;;5051958;28;20084;-67
2022/03/04 08:10:16;;;;;;;43.85;19.55;;;-0.10;99.90;;;;;;5052932;28;20045;-66
2022/03/04 08:12:42;;;;;;;35.75;18.20;;;0.00;99.90;;;;;;5051394;28;20131;-67
2022/03/04 08:15:10;;;;;;;38.33;17.23;;;0.10;99.90;;;;;;5041677;28;20040;-67
2022/03/04 08:17:36;;;;;;;36.20;17.52;;;0.10;99.90;;;;;;5034353;28;20048;-67
2022/03/04 08:20:03;;;;;;;39.38;18.15;;;0.20;99.90;;;;;;5048593;28;20053;-66
2022/03/04 08:22:28;;;;;;;36.30;17.73;;;0.20;99.90;;;;;;5050703;28;20037;-67
2022/03/04 08:24:54;;;;;;;31.80;16.80;;;0.30;99.90;;;;;;5052994;28;20509;-66
2022/03/04 08:27:20;;;;;;;39.80;17.58;;;0.40;99.90;;;;;;5054008;28;20041;-67
2022/03/04 08:29:46;;;;;;;32.30;16.83;;;0.40;99.90;;;;;;5036747;28;20069;-65
2022/03/04 08:32:11;;;;;;;27.95;15.57;;;0.40;99.90;;;;;;5015878;28;20099;-65
2022/03/04 08:34:37;;;;;;;32.90;18.25;;;0.70;99.90;;;;;;5052256;28;20052;-65
2022/03/04 08:37:03;;;;;;;37.08;17.58;;;0.40;99.90;;;;;;5052167;28;20049;-66
2022/03/04 08:39:29;;;;;;;33.80;16.90;;;0.40;99.90;;;;;;5024102;28;20498;-65
2022/03/04 08:41:55;;;;;;;32.58;16.95;;;0.40;99.90;;;;;;5052160;28;20049;-65
2022/03/04 08:44:20;;;;;;;36.63;17.15;;;0.40;99.90;;;;;;5039572;28;20087;-66
2022/03/04 08:46:47;;;;;;;34.95;17.88;;;0.50;99.90;;;;;;5037938;28;20037;-65
2022/03/04 08:49:13;;;;;;;33.97;16.95;;;0.60;99.90;;;;;;5037178;28;20120;-65
2022/03/04 08:51:39;;;;;;;31.70;15.98;;;0.70;99.90;;;;;;5053192;28;20052;-66
2022/03/04 08:54:07;;;;;;;30.85;16.70;;;0.80;99.90;;;;;;5029927;28;20046;-66
2022/03/04 08:56:34;;;;;;;32.55;14.98;;;0.80;99.90;;;;;;5033468;28;20045;-66
2022/03/04 08:59:00;;;;;;;28.85;16.35;;;0.90;99.90;;;;;;5044725;28;20483;-66
2022/03/04 09:01:26;;;;;;;32.00;16.42;;;0.90;99.90;;;;;;5051280;28;20487;-67
2022/03/04 09:03:52;;;;;;;31.55;16.33;;;0.90;99.90;;;;;;5052664;28;20044;-65
2022/03/04 09:06:18;;;;;;;31.73;17.27;;;0.90;99.90;;;;;;5035114;28;20056;-66
2022/03/04 09:08:43;;;;;;;30.45;17.00;;;1.00;99.90;;;;;;5035278;28;20052;-65
2022/03/04 09:11:09;;;;;;;31.20;16.75;;;1.10;99.90;;;;;;5044118;28;20087;-65
2022/03/04 09:13:35;;;;;;;30.00;17.08;;;1.20;99.90;;;;;;5032789;28;20095;-65
2022/03/04 09:16:02;;;;;;;33.13;16.73;;;1.40;99.90;;;;;;5032503;28;20041;-66
2022/03/04 09:18:28;;;;;;;34.78;17.88;;;1.70;99.90;;;;;;5015312;28;20045;-65
2022/03/04 09:20:54;;;;;;;30.25;15.82;;;1.80;99.90;;;;;;5028658;28;20041;-65
2022/03/04 09:23:20;;;;;;;27.25;15.40;;;1.90;99.90;;;;;;5030874;28;20057;-65
2022/03/04 09:25:47;;;;;;;29.30;15.45;;;1.80;99.90;;;;;;5015316;28;20048;-65
2022/03/04 09:28:13;;;;;;;30.13;15.63;;;1.60;99.90;;;;;;5032751;28;20424;-66
2022/03/04 09:30:39;;;;;;;31.60;16.75;;;1.70;99.90;;;;;;5032018;28;20053;-66
2022/03/04 09:33:04;;;;;;;34.75;16.70;;;1.80;99.90;;;;;;5049903;28;20045;-66
2022/03/04 09:35:31;;;;;;;27.88;16.05;;;1.90;99.90;;;;;;5040348;28;20545;-66
2022/03/04 09:37:57;;;;;;;27.90;15.32;;;2.20;99.90;;;;;;5052080;28;20506;-66
2022/03/04 09:40:23;;;;;;;26.63;16.42;;;2.50;99.90;;;;;;5052697;28;20045;-66
2022/03/04 09:42:49;;;;;;;25.30;14.77;;;2.70;99.90;;;;;;5040611;28;20052;-66
2022/03/04 09:45:15;;;;;;;29.45;15.77;;;3.00;99.90;;;;;;5032456;28;20045;-66
2022/03/04 09:47:43;;;;;;;28.60;14.70;;;3.30;99.90;;;;;;5059955;28;20103;-67
2022/03/04 09:50:09;;;;;;;35.05;20.02;;;3.40;99.90;;;;;;5068590;28;20045;-66
2022/03/04 09:52:36;;;;;;;29.85;16.08;;;3.50;99.90;;;;;;5039150;28;20522;-67
2022/03/04 09:55:02;;;;;;;26.63;15.70;;;3.60;99.90;;;;;;5052167;28;20082;-67
2022/03/04 09:57:28;;;;;;;22.83;14.07;;;3.80;99.90;;;;;;5017803;28;20043;-66
2022/03/04 09:59:53;;;;;;;29.20;15.82;;;4.00;99.90;;;;;;5059772;28;20463;-66
2022/03/04 10:02:20;;;;;;;20.77;13.18;;;4.30;99.90;;;;;;5054307;28;20075;-67
2022/03/04 10:04:45;;;;;;;23.63;13.88;;;4.70;99.90;;;;;;5057871;28;20038;-67
2022/03/04 10:07:16;;;;;;;22.60;14.25;;;5.00;99.90;;;;;;5049964;28;20044;-66
2022/03/04 10:09:46;;;;;;;18.48;12.23;;;5.00;99.90;;;;;;5052113;28;20041;-67
2022/03/04 10:12:14;;;;;;;21.50;13.30;;;5.00;99.90;;;;;;5036235;28;20045;-67
2022/03/04 10:15:00;;;;;;;24.48;15.07;;;5.20;99.90;;;;;;5032237;28;20499;-66
2022/03/04 10:17:26;;;;;;;19.00;12.10;;;5.40;99.90;;;;;;5032005;28;20046;-66
2022/03/04 10:19:58;;;;;;;18.02;11.57;;;5.60;99.90;;;;;;5049645;28;20033;-67
2022/03/04 10:22:34;;;;;;;17.15;11.80;;;5.90;99.90;;;;;;5014163;28;20057;-66
2022/03/04 10:24:59;;;;;;;22.75;12.20;;;6.30;99.90;;;;;;5014325;28;20176;-67
2022/03/04 10:27:31;;;;;;;21.83;12.38;;;6.50;99.90;;;;;;5032079;28;20128;-67
2022/03/04 10:29:57;;;;;;;21.70;13.43;;;6.70;99.90;;;;;;5031715;28;20052;-67
2022/03/04 10:32:26;;;;;;;23.02;12.77;;;6.90;99.90;;;;;;5009855;28;20052;-67
2022/03/04 10:35:07;;;;;;;18.13;11.23;;;7.20;99.90;;;;;;5034413;28;20045;-67
2022/03/04 10:37:59;;;;;;;16.95;11.40;;;7.50;99.90;;;;;;5051919;28;20498;-65
2022/03/04 10:40:30;;;;;;;19.98;11.80;;;7.70;99.90;;;;;;5045848;28;20057;-66
2022/03/04 10:42:58;;;;;;;15.65;11.48;;;7.80;99.90;;;;;;5032022;28;20120;-66
2022/03/04 10:45:28;;;;;;;;;;;7.50;99.90;;;;;;5052077;28;20095;-66
2022/03/04 10:48:14;;;;;;;;;;;7.30;99.90;;;;;;5032264;28;20625;-66
2022/03/04 10:50:44;;;;;;;20.23;11.10;;;7.30;99.90;;;;;;5041109;28;20016;-66
2022/03/04 10:53:11;;;;;;;16.05;11.23;;;7.60;99.90;;;;;;5037811;28;20041;-66
2022/03/04 10:55:54;;;;;;;17.60;10.35;;;7.90;99.90;;;;;;5073046;28;20049;-68
2022/03/04 10:58:21;;;;;;;16.35;10.95;;;8.10;99.90;;;;;;5056004;28;20037;-67
2022/03/04 11:00:49;;;;;;;15.73;10.98;;;8.10;99.90;;;;;;5066764;28;20080;-67
2022/03/04 11:03:17;;;;;;;14.55;10.25;;;8.40;99.90;;;;;;5036575;28;20514;-67
2022/03/04 11:05:43;;;;;;;16.15;10.93;;;8.60;99.90;;;;;;5044406;28;20041;-67
2022/03/04 11:08:09;;;;;;;17.45;11.07;;;9.10;99.90;;;;;;5054941;28;20410;-67
2022/03/04 11:10:35;;;;;;;16.58;10.68;;;9.20;99.90;;;;;;5055004;28;20048;-67
2022/03/04 11:13:07;;;;;;;16.38;10.88;;;9.40;99.90;;;;;;5054865;28;20056;-66
2022/03/04 11:15:34;;;;;;;18.25;10.90;;;9.60;99.90;;;;;;5048679;28;20049;-66
2022/03/04 11:18:06;;;;;;;16.50;11.07;;;10.00;99.90;;;;;;5053774;28;20549;-66
2022/03/04 11:20:32;;;;;;;15.55;10.80;;;9.80;99.90;;;;;;5054759;28;20045;-67
2022/03/04 11:22:59;;;;;;;14.75;10.88;;;9.70;99.90;;;;;;5055201;28;20041;-67
2022/03/04 11:25:25;;;;;;;17.27;11.43;;;9.70;99.90;;;;;;5049874;28;20037;-67
2022/03/04 11:27:53;;;;;;;17.27;10.60;;;9.70;99.70;;;;;;5038467;28;20033;-67
2022/03/04 11:30:38;;;;;;;17.25;10.65;;;9.60;99.10;;;;;;5023881;28;20111;-67
2022/03/04 11:33:13;;;;;;;16.33;10.88;;;9.50;97.30;;;;;;5026977;28;20037;-67
2022/03/04 11:35:42;;;;;;;15.73;10.77;;;9.80;98.60;;;;;;5036333;28;20049;-67
2022/03/04 11:38:09;;;;;;;14.13;10.80;;;9.90;98.50;;;;;;5025628;28;20120;-68
2022/03/04 11:40:38;;;;;;;15.02;10.57;;;9.90;98.30;;;;;;5034553;28;20048;-67
2022/03/04 11:43:06;;;;;;;16.38;10.35;;;9.90;98.10;;;;;;5034495;28;20041;-67
2022/03/04 11:45:35;;;;;;;14.63;11.02;;;10.30;97.80;;;;;;5053120;28;20088;-67
2022/03/04 11:48:07;;;;;;;16.02;10.68;;;10.30;97.20;;;;;;5053923;28;20080;-67
2022/03/04 11:50:36;;;;;;;16.67;10.30;;;10.50;96.70;;;;;;5030622;28;20045;-67
2022/03/04 11:53:16;;;;;;;15.60;10.77;;;10.40;95.20;;;;;;5052032;28;20049;-67
2022/03/04 11:56:10;;;;;;;18.27;11.20;;;10.60;94.90;;;;;;5036579;28;20041;-66
2022/03/04 11:58:54;;;;;;;14.60;11.30;;;10.80;95.20;;;;;;5034616;28;20124;-66
2022/03/04 12:01:26;;;;;;;15.88;11.45;;;11.00;94.00;;;;;;5016480;28;20136;-66
2022/03/04 12:04:10;;;;;;;14.35;10.63;;;10.50;93.10;;;;;;5016679;28;20359;-67
2022/03/04 12:06:40;;;;;;;19.02;11.20;;;10.40;92.60;;;;;;5044152;28;20141;-66
2022/03/04 12:09:29;;;;;;;18.02;11.30;;;10.70;93.60;;;;;;5056241;28;20456;-66
2022/03/04 12:12:24;;;;;;;16.10;11.40;;;10.80;93.10;;;;;;5034482;28;20044;-67
2022/03/04 12:15:14;;;;;;;17.02;11.60;;;11.10;93.20;;;;;;5044201;28;20050;-67
2022/03/04 12:18:15;;;;;;;17.08;12.02;;;11.30;93.10;;;;;;5040998;28;20435;-66
2022/03/04 12:20:40;;;;;;;18.55;12.15;;;11.00;90.50;;;;;;5045465;28;20113;-67
2022/03/04 12:23:17;;;;;;;17.63;11.55;;;10.50;92.30;;;;;;5035482;28;20144;-67
2022/03/04 12:25:52;;;;;;;19.42;13.27;;;10.40;92.30;;;;;;5057901;28;20474;-67
2022/03/04 12:28:20;;;;;;;16.92;11.73;;;10.20;91.40;;;;;;5066320;28;20051;-66
2022/03/04 12:31:06;;;;;;;;;;;10.20;92.40;;;;;;5071050;28;20083;-66
2022/03/04 12:33:34;;;;;;;17.98;12.57;;;11.20;91.70;;;;;;5038920;28;19920;-66
2022/03/04 12:36:00;;;;;;;;;;;10.90;92.10;;;;;;5060342;28;20052;-69
2022/03/04 12:38:30;;;;;;;20.63;12.55;;;11.10;90.00;;;;;;5052371;28;19974;-67